Time;durP1;ratioP1;P1;durP2;ratioP2;P2;SDS_P1;SDS_P2;PMS_P1;PMS_P2;Temp;Humidity;BMP_temperature;BMP_pressure;BME280_temperature;BME280_humidity;BME280_pressure;Samples;Min_cycle;Max_cycle;Signal;HPM_P1;HPM_P2
2024/04/06 00:00:40;;;;;;;5.07;2.10;;;;;;;14.29;62.65;98570.25;4966841;28;103374;-66
2024/04/06 00:03:06;;;;;;;5.00;1.98;;;;;;;14.36;62.40;98568.47;4973895;28;103227;-67
2024/04/06 00:05:34;;;;;;;8.40;2.33;;;;;;;14.34;62.26;98567.81;4972802;28;102852;-67
2024/04/06 00:08:00;;;;;;;5.32;2.28;;;;;;;14.35;62.49;98574.00;4970411;28;102763;-67
2024/04/06 00:10:28;;;;;;;3.58;1.67;;;;;;;14.37;62.25;98571.94;4973554;28;103615;-67
2024/04/06 00:12:54;;;;;;;5.95;2.17;;;;;;;14.27;62.71;98574.97;4971567;28;103237;-67
2024/04/06 00:15:22;;;;;;;9.55;2.47;;;;;;;14.34;62.21;98577.69;4975319;28;102695;-67
2024/04/06 00:17:47;;;;;;;6.45;2.15;;;;;;;14.26;62.81;98575.97;4973446;28;103069;-68
2024/04/06 00:20:13;;;;;;;4.70;2.10;;;;;;;14.22;63.26;98569.41;4972992;28;105249;-67
2024/04/06 00:22:39;;;;;;;8.95;2.78;;;;;;;14.10;64.20;98559.28;4962680;28;105593;-66
2024/04/06 00:25:08;;;;;;;6.68;2.88;;;;;;;14.11;64.28;98562.78;4971081;28;102851;-67
2024/04/06 00:27:36;;;;;;;5.35;2.83;;;;;;;14.09;64.30;98562.94;4973666;28;103748;-67
2024/04/06 00:30:05;;;;;;;7.85;3.22;;;;;;;14.06;64.18;98563.34;4973454;28;103602;-67
2024/04/06 00:32:31;;;;;;;6.00;2.80;;;;;;;14.14;64.10;98561.56;4970056;28;103169;-67
2024/04/06 00:34:57;;;;;;;10.20;3.53;;;;;;;14.18;64.05;98565.50;4971491;28;102759;-67
2024/04/06 00:37:23;;;;;;;6.80;3.03;;;;;;;14.21;63.99;98570.41;4958169;28;102867;-67
2024/04/06 00:39:51;;;;;;;6.53;3.30;;;;;;;14.21;63.79;98579.25;4967955;28;106589;-67
2024/04/06 00:42:16;;;;;;;6.70;3.08;;;;;;;14.15;64.08;98579.16;4967852;28;103359;-67
2024/04/06 00:44:42;;;;;;;8.30;3.28;;;;;;;14.02;64.05;98579.94;4984857;28;102699;-66
2024/04/06 00:47:08;;;;;;;8.40;3.22;;;;;;;13.52;65.59;98582.53;4971229;28;102833;-67
2024/04/06 00:49:34;;;;;;;11.27;3.60;;;;;;;13.51;65.43;98589.72;4971402;28;103227;-67
2024/04/06 00:52:03;;;;;;;5.43;2.72;;;;;;;13.48;65.58;98590.09;4971896;28;103231;-67
2024/04/06 00:54:29;;;;;;;8.65;3.05;;;;;;;13.49;65.25;98596.22;4974568;28;103071;-67
2024/04/06 00:56:57;;;;;;;8.00;3.38;;;;;;;13.30;65.97;98582.50;4969579;28;102911;-67
2024/04/06 00:59:22;;;;;;;6.43;2.75;;;;;;;13.44;65.23;98588.81;4972128;28;103302;-63
2024/04/06 01:01:48;;;;;;;6.72;2.40;;;;;;;13.70;64.46;98604.22;4984192;28;103342;-63
2024/04/06 01:04:16;;;;;;;5.10;2.78;;;;;;;13.73;65.21;98603.03;4958095;28;102779;-63
2024/04/06 01:06:42;;;;;;;6.55;3.15;;;;;;;13.62;65.53;98606.19;4975724;28;103066;-63
2024/04/06 01:09:08;;;;;;;7.28;3.00;;;;;;;13.52;66.42;98603.81;4956635;28;103479;-64
2024/04/06 01:11:36;;;;;;;9.55;3.78;;;;;;;13.46;66.46;98600.09;4938232;28;105504;-64
2024/04/06 01:14:03;;;;;;;13.30;4.28;;;;;;;13.12;68.10;98596.22;4972550;28;102796;-63
2024/04/06 01:16:31;;;;;;;8.68;4.22;;;;;;;12.88;68.82;98597.38;4950539;28;103120;-64
2024/04/06 01:18:57;;;;;;;9.55;3.83;;;;;;;12.90;68.74;98593.53;4969709;28;102771;-63
2024/04/06 01:21:23;;;;;;;7.38;3.28;;;;;;;13.06;67.55;98594.31;4986091;28;105183;-63
2024/04/06 01:23:52;;;;;;;6.43;3.47;;;;;;;13.06;67.45;98587.16;4973092;28;102758;-63
2024/04/06 01:26:20;;;;;;;7.20;2.67;;;;;;;13.10;67.05;98599.06;4967907;28;102853;-63
2024/04/06 01:28:46;;;;;;;9.93;3.85;;;;;;;12.60;69.38;98593.53;4971259;28;103378;-63
2024/04/06 01:31:12;;;;;;;10.40;3.55;;;;;;;12.64;68.70;98607.28;4951502;28;103533;-62
2024/04/06 01:33:41;;;;;;;6.38;3.15;;;;;;;12.68;68.94;98605.91;4954510;28;102871;-63
2024/04/06 01:36:07;;;;;;;8.93;3.67;;;;;;;12.59;68.93;98599.06;4958558;28;103914;-63
2024/04/06 01:38:35;;;;;;;6.38;3.20;;;;;;;12.64;68.62;98601.94;4971599;28;103496;-63
2024/04/06 01:41:03;;;;;;;8.40;3.25;;;;;;;12.71;67.82;98602.88;4971149;28;105497;-62
2024/04/06 01:43:29;;;;;;;5.95;3.08;;;;;;;12.69;68.14;98601.41;4971941;28;102938;-63
2024/04/06 01:45:55;;;;;;;10.45;3.63;;;;;;;12.77;68.18;98609.28;4971682;28;102859;-63
2024/04/06 01:48:20;;;;;;;9.90;3.00;;;;;;;12.83;67.74;98608.56;4972544;28;103440;-63
2024/04/06 01:50:46;;;;;;;7.82;3.65;;;;;;;12.92;67.06;98611.94;4969442;28;103298;-63
2024/04/06 01:53:12;;;;;;;5.57;2.70;;;;;;;12.83;67.26;98602.44;4968238;28;102911;-63
2024/04/06 01:55:40;;;;;;;5.72;2.83;;;;;;;12.80;67.10;98603.63;4968848;28;102700;-63
2024/04/06 01:58:06;;;;;;;6.00;2.40;;;;;;;12.80;66.81;98600.97;4970632;28;107873;-63
2024/04/06 02:00:31;;;;;;;6.78;2.83;;;;;;;12.72;66.95;98603.69;4956159;28;103179;-63
2024/04/06 02:02:57;;;;;;;7.45;2.80;;;;;;;12.67;67.09;98603.41;4955057;28;103351;-63
2024/04/06 02:05:23;;;;;;;4.53;2.47;;;;;;;12.67;67.44;98596.28;4959636;28;102963;-67
2024/04/06 02:07:48;;;;;;;6.45;2.58;;;;;;;12.66;67.25;98591.97;4972388;28;103430;-67
2024/04/06 02:10:16;;;;;;;7.53;3.13;;;;;;;12.35;68.44;98589.50;4960282;28;103228;-67
2024/04/06 02:12:42;;;;;;;5.30;2.65;;;;;;;12.35;68.44;98595.63;4973569;28;103140;-66
2024/04/06 02:15:08;;;;;;;6.15;3.00;;;;;;;11.94;70.22;98580.88;4969618;28;102698;-67
2024/04/06 02:17:34;;;;;;;5.03;2.60;;;;;;;12.09;69.84;98586.28;4949345;28;106046;-67
2024/04/06 02:19:59;;;;;;;5.35;2.38;;;;;;;12.19;69.28;98590.50;4954055;28;103564;-67
2024/04/06 02:22:25;;;;;;;7.25;2.90;;;;;;;12.15;69.41;98592.69;4961808;28;103121;-67
2024/04/06 02:24:51;;;;;;;6.57;2.25;;;;;;;12.25;68.81;98584.47;4996085;28;103185;-67
2024/04/06 02:27:17;;;;;;;5.88;2.65;;;;;;;12.33;68.22;98583.53;4972441;28;103206;-67
2024/04/06 02:29:43;;;;;;;2.38;1.67;;;;;;;12.32;68.11;98576.59;4969415;28;103797;-67
2024/04/06 02:32:11;;;;;;;4.75;1.88;;;;;;;12.32;67.87;98580.06;4958009;28;103005;-67
2024/04/06 02:34:41;;;;;;;4.80;2.40;;;;;;;12.26;68.00;98570.16;4977790;28;102705;-67
2024/04/06 02:37:07;;;;;;;4.10;1.88;;;;;;;12.17;68.60;98572.09;4957363;28;108154;-67
2024/04/06 02:39:33;;;;;;;6.60;2.70;;;;;;;11.99;69.48;98564.47;4957787;28;105493;-67
2024/04/06 02:41:59;;;;;;;3.33;2.03;;;;;;;11.89;69.66;98554.06;4970710;28;103789;-67
2024/04/06 02:44:24;;;;;;;5.95;2.45;;;;;;;11.52;71.43;98562.84;4962351;28;102735;-67
2024/04/06 02:46:50;;;;;;;5.43;2.30;;;;;;;11.58;71.13;98556.81;4946383;28;103254;-66
2024/04/06 02:49:16;;;;;;;3.28;1.92;;;;;;;11.48;71.66;98570.34;4969652;28;103147;-67
2024/04/06 02:51:42;;;;;;;7.88;2.28;;;;;;;11.65;70.88;98557.78;4961775;28;102839;-67
2024/04/06 02:54:08;;;;;;;6.55;2.30;;;;;;;11.62;71.18;98568.75;4952386;28;103982;-67
2024/04/06 02:56:34;;;;;;;7.95;2.30;;;;;;;11.67;70.76;98568.19;4984889;28;103469;-67
2024/04/06 02:59:00;;;;;;;3.90;1.75;;;;;;;11.64;71.01;98560.59;4951214;28;104524;-67
2024/04/06 03:01:26;;;;;;;2.92;1.60;;;;;;;11.74;70.88;98567.31;4968977;28;102761;-67
2024/04/06 03:03:52;;;;;;;3.70;1.83;;;;;;;11.81;70.47;98564.75;4974281;28;106454;-67
2024/04/06 03:06:17;;;;;;;5.85;2.10;;;;;;;11.86;70.22;98570.34;4974462;28;104057;-67
2024/04/06 03:08:46;;;;;;;4.45;1.98;;;;;;;11.94;69.91;98572.13;4971389;28;103102;-68
2024/04/06 03:11:11;;;;;;;3.67;1.55;;;;;;;12.00;69.68;98571.44;4956042;28;104345;-68
2024/04/06 03:13:37;;;;;;;4.13;1.70;;;;;;;12.03;69.42;98573.72;4961570;28;102906;-69
2024/04/06 03:16:03;;;;;;;4.30;1.65;;;;;;;11.99;69.32;98576.94;4971134;28;103327;-68
2024/04/06 03:18:29;;;;;;;4.80;2.00;;;;;;;11.87;69.87;98581.78;4960780;28;103204;-69
2024/04/06 03:20:54;;;;;;;5.75;2.15;;;;;;;11.83;69.80;98585.81;4972017;28;102823;-68
2024/04/06 03:23:22;;;;;;;5.57;2.22;;;;;;;11.78;70.19;98589.00;4955922;28;102752;-68
2024/04/06 03:25:52;;;;;;;5.68;2.10;;;;;;;11.60;71.22;98586.66;4968731;28;105518;-68
2024/04/06 03:28:21;;;;;;;4.55;1.85;;;;;;;11.51;70.82;98585.88;4960767;28;103281;-68
2024/04/06 03:30:47;;;;;;;6.53;1.70;;;;;;;11.50;70.89;98586.06;4971292;28;102679;-68
2024/04/06 03:33:15;;;;;;;4.43;1.80;;;;;;;11.45;70.94;98583.97;4975921;28;102828;-69
2024/04/06 03:35:41;;;;;;;7.05;1.73;;;;;;;11.07;72.12;98587.34;4946541;28;103239;-68
2024/04/06 03:38:07;;;;;;;4.43;1.83;;;;;;;11.09;71.55;98580.00;4957559;28;103369;-68
2024/04/06 03:40:32;;;;;;;3.97;2.00;;;;;;;11.03;71.91;98580.72;4958160;28;103043;-68
2024/04/06 03:42:59;;;;;;;4.43;2.03;;;;;;;10.99;72.05;98578.59;4955943;28;102899;-69
2024/04/06 03:45:30;;;;;;;11.18;1.85;;;;;;;11.14;71.72;98587.47;4973613;28;103341;-68
2024/04/06 03:47:56;;;;;;;7.90;1.92;;;;;;;11.18;71.22;98582.63;4971388;28;103871;-68
2024/04/06 03:50:22;;;;;;;6.20;1.90;;;;;;;11.07;71.85;98575.88;4971224;28;102799;-69
2024/04/06 03:52:49;;;;;;;5.43;2.05;;;;;;;10.92;72.33;98570.50;4952765;28;102671;-68
2024/04/06 03:55:15;;;;;;;4.28;1.80;;;;;;;11.02;71.93;98573.78;4977798;28;103374;-69
2024/04/06 03:57:40;;;;;;;3.85;1.73;;;;;;;11.16;71.30;98574.88;4972760;28;106489;-68
2024/04/06 04:00:10;;;;;;;6.13;1.95;;;;;;;11.02;71.92;98573.78;4974389;28;102795;-68
2024/04/06 04:02:37;;;;;;;5.75;2.17;;;;;;;10.97;71.73;98570.00;4989288;28;102796;-69
2024/04/06 04:05:03;;;;;;;6.78;2.10;;;;;;;10.94;72.25;98576.47;4957044;28;105778;-69
2024/04/06 04:07:30;;;;;;;12.45;2.47;;;;;;;10.93;72.09;98586.22;4957836;28;103078;-69
2024/04/06 04:09:57;;;;;;;6.38;2.13;;;;;;;10.96;71.93;98587.72;4958584;28;102806;-69
2024/04/06 04:12:28;;;;;;;2.72;1.42;;;;;;;11.11;71.07;98583.31;4972165;28;103380;-69
2024/04/06 04:14:54;;;;;;;5.85;2.05;;;;;;;11.06;70.95;98580.38;4941869;28;106531;-68
2024/04/06 04:17:23;;;;;;;2.42;1.27;;;;;;;11.15;70.67;98589.13;4959162;28;103494;-69
2024/04/06 04:19:52;;;;;;;6.13;1.90;;;;;;;11.06;71.39;98583.03;4959834;28;102890;-68
2024/04/06 04:22:18;;;;;;;5.35;2.10;;;;;;;10.69;73.04;98589.81;4973548;28;103277;-69
2024/04/06 04:24:44;;;;;;;4.15;1.90;;;;;;;10.66;72.89;98587.50;4954623;28;103573;-68
2024/04/06 04:27:10;;;;;;;7.18;2.25;;;;;;;10.57;73.31;98581.44;4956445;28;103225;-69
2024/04/06 04:29:38;;;;;;;4.65;1.88;;;;;;;10.47;73.24;98579.94;4955170;28;102927;-68
2024/04/06 04:32:04;;;;;;;6.25;2.10;;;;;;;10.56;73.38;98584.25;4956357;28;103120;-68
2024/04/06 04:34:30;;;;;;;3.95;1.65;;;;;;;10.69;72.54;98589.81;4987394;28;103190;-68
2024/04/06 04:36:56;;;;;;;7.95;2.10;;;;;;;10.86;72.20;98601.19;4970815;28;103397;-69
2024/04/06 04:39:22;;;;;;;6.85;2.05;;;;;;;10.90;71.86;98596.34;4974748;28;102809;-69
2024/04/06 04:41:50;;;;;;;3.28;2.15;;;;;;;10.97;71.54;98597.31;4968355;28;104472;-69
2024/04/06 04:44:18;;;;;;;5.97;2.00;;;;;;;10.83;71.85;98606.00;4988408;28;103813;-69
2024/04/06 04:46:44;;;;;;;4.43;2.00;;;;;;;10.89;71.74;98594.72;4957536;28;105897;-69
2024/04/06 04:49:12;;;;;;;4.90;2.08;;;;;;;11.01;71.06;98601.28;4975900;28;104548;-70
2024/04/06 04:51:38;;;;;;;6.60;2.20;;;;;;;11.03;70.78;98607.22;4968863;28;102868;-70
2024/04/06 04:54:04;;;;;;;4.60;2.03;;;;;;;11.07;71.04;98594.44;4969402;28;109119;-69
2024/04/06 04:56:32;;;;;;;4.57;1.80;;;;;;;11.08;70.77;98599.59;4976395;28;103173;-70
2024/04/06 04:59:00;;;;;;;5.70;2.03;;;;;;;11.05;71.21;98605.22;4960576;28;103570;-70
2024/04/06 05:01:26;;;;;;;3.35;1.95;;;;;;;11.08;70.94;98599.59;4975961;28;102759;-70
2024/04/06 05:03:52;;;;;;;4.85;2.10;;;;;;;11.17;70.77;98607.50;4975704;28;103609;-69
2024/04/06 05:06:18;;;;;;;4.85;1.83;;;;;;;11.13;70.98;98609.66;4975504;28;103125;-70
2024/04/06 05:08:43;;;;;;;4.60;2.20;;;;;;;11.19;70.68;98601.00;4956821;28;103380;-70
2024/04/06 05:11:10;;;;;;;4.70;2.20;;;;;;;11.17;70.72;98610.13;4974798;28;102736;-70
2024/04/06 05:13:38;;;;;;;6.03;2.20;;;;;;;11.17;71.09;98612.78;4960301;28;103553;-70
2024/04/06 05:16:06;;;;;;;5.00;1.90;;;;;;;11.20;70.74;98609.78;4973320;28;107995;-70
2024/04/06 05:18:34;;;;;;;7.93;2.25;;;;;;;11.18;70.85;98617.91;4974228;28;103092;-70
2024/04/06 05:21:00;;;;;;;4.47;2.17;;;;;;;11.26;70.73;98614.41;4957532;28;102827;-64
2024/04/06 05:23:30;;;;;;;5.22;2.00;;;;;;;11.24;71.00;98621.69;4955882;28;106060;-64
2024/04/06 05:25:56;;;;;;;6.53;2.00;;;;;;;11.23;70.73;98623.53;4954251;28;105356;-64
2024/04/06 05:28:25;;;;;;;5.50;2.15;;;;;;;11.36;70.56;98630.09;4979140;28;102694;-63
2024/04/06 05:30:52;;;;;;;4.03;2.28;;;;;;;11.33;70.75;98625.97;4974326;28;103156;-64
2024/04/06 05:33:19;;;;;;;8.25;2.13;;;;;;;11.28;71.03;98630.97;4963805;28;103319;-64
2024/04/06 05:35:50;;;;;;;4.22;2.40;;;;;;;11.42;70.29;98627.56;4969457;28;103216;-64
2024/04/06 05:38:21;;;;;;;4.85;2.08;;;;;;;11.54;70.06;98625.34;4952303;28;102934;-64
2024/04/06 05:40:47;;;;;;;3.75;1.63;;;;;;;11.61;69.73;98636.06;4959469;28;102845;-64
2024/04/06 05:43:13;;;;;;;4.28;1.70;;;;;;;11.70;69.34;98645.63;4977030;28;103335;-70
2024/04/06 05:45:41;;;;;;;6.40;1.75;;;;;;;11.77;69.34;98643.06;4977206;28;103902;-70
2024/04/06 05:48:08;;;;;;;4.65;2.33;;;;;;;11.85;69.26;98643.00;4962195;28;102739;-71
2024/04/06 05:50:41;;;;;;;8.80;3.10;;;;;;;11.69;69.72;98643.97;4962834;28;103358;-70
2024/04/06 05:53:07;;;;;;;6.68;2.42;;;;;;;11.94;68.74;98638.47;4976310;28;109897;-70
2024/04/06 05:55:32;;;;;;;4.30;2.10;;;;;;;12.09;68.41;98635.88;4977301;28;103785;-71
2024/04/06 05:57:58;;;;;;;3.83;1.90;;;;;;;12.14;68.63;98632.69;4971171;28;102851;-71
2024/04/06 06:00:27;;;;;;;4.53;2.25;;;;;;;12.18;68.18;98642.75;4980081;28;103091;-71
2024/04/06 06:02:54;;;;;;;4.65;2.08;;;;;;;12.35;67.40;98637.31;4945776;28;104478;-72
2024/04/06 06:05:20;;;;;;;6.40;2.30;;;;;;;12.44;67.10;98633.56;4968354;28;103252;-71
2024/04/06 06:07:46;;;;;;;5.35;2.00;;;;;;;12.62;67.05;98637.72;4972038;28;102799;-70
2024/04/06 06:10:15;;;;;;;5.03;2.00;;;;;;;12.74;66.36;98631.72;4960013;28;102804;-71
2024/04/06 06:12:41;;;;;;;4.57;1.70;;;;;;;12.75;66.56;98632.56;4975445;28;103860;-71
2024/04/06 06:15:07;;;;;;;6.95;2.33;;;;;;;12.87;66.45;98640.91;4958851;28;103217;-71
2024/04/06 06:17:35;;;;;;;3.00;2.05;;;;;;;13.08;65.73;98638.31;4973113;28;102869;-71
2024/04/06 06:20:04;;;;;;;3.53;1.83;;;;;;;13.30;65.04;98640.19;4975633;28;102977;-72
2024/04/06 06:22:31;;;;;;;3.03;1.45;;;;;;;13.45;64.72;98626.91;4974434;28;105757;-71
2024/04/06 06:24:59;;;;;;;5.78;1.92;;;;;;;13.56;64.06;98624.56;4960187;28;103236;-71
2024/04/06 06:27:27;;;;;;;3.92;1.67;;;;;;;13.75;63.89;98623.13;4959429;28;102719;-71
2024/04/06 06:29:54;;;;;;;6.88;2.00;;;;;;;13.87;63.72;98630.56;4968639;28;102860;-71
2024/04/06 06:32:23;;;;;;;4.50;1.77;;;;;;;13.98;63.45;98626.56;4970083;28;103329;-71
2024/04/06 06:34:51;;;;;;;4.88;1.60;;;;;;;14.12;62.73;98630.97;4934392;28;106323;-71
2024/04/06 06:37:19;;;;;;;3.05;1.50;;;;;;;14.25;61.96;98632.94;4976776;28;102851;-71
2024/04/06 06:39:45;;;;;;;4.30;1.60;;;;;;;14.15;61.87;98632.44;4960445;28;102942;-71
2024/04/06 06:42:11;;;;;;;3.50;1.80;;;;;;;14.19;61.88;98639.06;4973664;28;105628;-72
2024/04/06 06:44:38;;;;;;;4.55;1.80;;;;;;;14.25;61.65;98638.25;4971936;28;103520;-71
2024/04/06 06:47:05;;;;;;;6.22;1.80;;;;;;;14.36;61.16;98639.59;4943956;28;103004;-71
2024/04/06 06:49:31;;;;;;;9.48;1.98;;;;;;;14.41;60.97;98645.97;4945965;28;104095;-71
2024/04/06 06:51:57;;;;;;;7.60;2.17;;;;;;;14.48;60.76;98643.34;4968194;28;103560;-72
2024/04/06 06:54:24;;;;;;;5.15;1.90;;;;;;;14.53;59.77;98648.94;4949283;28;103601;-71
2024/04/06 06:56:49;;;;;;;4.15;1.80;;;;;;;14.70;60.36;98652.13;4927132;28;102882;-71
2024/04/06 06:59:15;;;;;;;7.68;1.48;;;;;;;14.93;59.70;98661.69;4949174;28;102869;-71
2024/04/06 07:01:42;;;;;;;4.03;1.85;;;;;;;14.91;58.77;98663.75;4956086;28;102902;-71
2024/04/06 07:04:12;;;;;;;8.80;1.95;;;;;;;15.08;58.89;98667.72;4939411;28;103575;-71
2024/04/06 07:06:38;;;;;;;6.40;1.92;;;;;;;15.22;58.86;98665.94;4942769;28;103069;-71
2024/04/06 07:09:07;;;;;;;4.25;1.73;;;;;;;15.42;57.78;98663.34;4951694;28;102753;-71
2024/04/06 07:11:34;;;;;;;9.45;2.20;;;;;;;15.35;57.75;98665.19;4966253;28;103810;-70
2024/04/06 07:14:00;;;;;;;4.10;1.88;;;;;;;15.49;57.73;98668.69;4971220;28;103417;-71
2024/04/06 07:16:28;;;;;;;4.78;1.90;;;;;;;15.70;57.97;98666.91;4955183;28;103140;-71
2024/04/06 07:18:54;;;;;;;5.90;1.98;;;;;;;15.63;57.65;98664.22;4968698;28;102910;-71
2024/04/06 07:21:20;;;;;;;6.75;2.00;;;;;;;15.69;57.68;98666.06;4954938;28;103384;-71
2024/04/06 07:23:46;;;;;;;7.43;2.50;;;;;;;15.65;56.95;98664.03;4969211;28;103371;-71
2024/04/06 07:26:15;;;;;;;5.65;2.00;;;;;;;15.83;56.43;98650.13;4954835;28;102934;-71
2024/04/06 07:28:42;;;;;;;3.75;1.55;;;;;;;16.18;56.50;98648.09;4959788;28;103471;-70
2024/04/06 07:31:08;;;;;;;6.15;2.13;;;;;;;16.17;56.20;98645.63;4946969;28;103441;-70
2024/04/06 07:33:55;;;;;;;5.07;1.77;;;;;;;16.36;55.75;98655.50;4946132;28;103293;-69
2024/04/06 07:36:35;;;;;;;8.70;2.17;;;;;;;16.62;55.27;98664.50;4933896;28;103234;-70
2024/04/06 07:39:01;;;;;;;5.68;1.98;;;;;;;16.81;53.82;98668.16;4958930;28;103127;-65
2024/04/06 07:41:30;;;;;;;4.72;2.00;;;;;;;17.29;54.02;98675.03;4963022;28;103387;-65
2024/04/06 07:43:55;;;;;;;5.05;1.88;;;;;;;17.51;54.22;98675.56;4971393;28;105349;-66
2024/04/06 07:46:22;;;;;;;6.55;1.80;;;;;;;17.43;51.84;98670.44;4954023;28;102771;-65
2024/04/06 07:48:55;;;;;;;9.25;2.20;;;;;;;17.49;51.87;98679.47;4948285;28;103357;-65
2024/04/06 07:51:24;;;;;;;7.15;2.28;;;;;;;17.71;51.54;98670.09;4967615;28;103760;-65
2024/04/06 07:53:50;;;;;;;3.92;1.95;;;;;;;18.17;50.16;98670.00;4973307;28;103658;-67
2024/04/06 07:56:17;;;;;;;3.90;2.03;;;;;;;18.65;49.99;98658.66;4973863;28;102883;-66
2024/04/06 07:58:46;;;;;;;4.47;2.10;;;;;;;18.69;50.78;98656.34;4942947;28;102929;-66
2024/04/06 08:01:12;;;;;;;4.53;1.80;;;;;;;18.77;49.58;98663.28;4963183;28;105382;-66
2024/04/06 08:03:38;;;;;;;8.02;2.03;;;;;;;18.60;49.53;98658.50;4973656;28;103747;-69
2024/04/06 08:06:06;;;;;;;6.38;1.63;;;;;;;19.34;49.01;98657.72;4960210;28;102770;-69
2024/04/06 08:08:34;;;;;;;6.93;1.80;;;;;;;19.89;47.69;98664.84;4974171;28;104020;-66
2024/04/06 08:11:01;;;;;;;8.68;2.33;;;;;;;19.94;47.03;98670.38;4958239;28;103301;-65
2024/04/06 08:13:27;;;;;;;6.28;1.70;;;;;;;19.85;47.60;98656.44;4970925;28;103347;-66
2024/04/06 08:15:52;;;;;;;6.00;1.70;;;;;;;19.93;46.99;98675.97;4954448;28;102920;-69
2024/04/06 08:18:18;;;;;;;4.15;1.38;;;;;;;20.12;46.46;98674.84;4957179;28;102936;-69
2024/04/06 08:20:44;;;;;;;7.15;1.65;;;;;;;20.27;45.23;98671.69;4940745;28;105674;-69
2024/04/06 08:23:10;;;;;;;4.15;1.30;;;;;;;20.94;45.87;98659.78;4929730;28;104039;-69
2024/04/06 08:25:36;;;;;;;2.97;1.58;;;;;;;21.85;43.93;98661.00;4940213;28;104589;-69
2024/04/06 08:28:02;;;;;;;2.05;1.25;;;;;;;22.15;42.37;98651.81;4941313;28;102984;-69
2024/04/06 08:30:28;;;;;;;8.95;1.40;;;;;;;21.69;42.53;98649.97;4965517;28;103270;-69
2024/04/06 08:32:56;;;;;;;3.22;1.15;;;;;;;21.88;41.93;98646.22;4956183;28;105171;-68
2024/04/06 08:35:23;;;;;;;2.97;1.40;;;;;;;22.30;41.80;98641.25;4972477;28;103963;-69
2024/04/06 08:37:57;;;;;;;3.55;1.42;;;;;;;21.97;41.25;98645.59;4977573;28;102736;-68
2024/04/06 08:40:23;;;;;;;4.30;1.77;;;;;;;22.53;41.65;98644.84;4955755;28;106177;-69
2024/04/06 08:42:52;;;;;;;3.63;1.40;;;;;;;22.63;40.20;98630.72;4958125;28;103844;-68
2024/04/06 08:45:21;;;;;;;5.80;1.60;;;;;;;22.78;40.06;98630.09;4944381;28;103132;-68
2024/04/06 08:47:47;;;;;;;7.45;1.60;;;;;;;23.27;40.00;98630.19;4970879;28;102905;-69
2024/04/06 08:50:14;;;;;;;7.03;1.50;;;;;;;23.07;38.73;98632.59;4969806;28;104636;-69
2024/04/06 08:52:43;;;;;;;2.47;1.00;;;;;;;22.88;40.79;98626.72;4976109;28;103760;-69
2024/04/06 08:55:09;;;;;;;4.97;1.33;;;;;;;23.10;40.50;98642.94;4943216;28;104067;-69
2024/04/06 08:57:42;;;;;;;5.18;1.50;;;;;;;23.27;38.09;98638.28;4932198;28;103115;-70
2024/04/06 09:00:12;;;;;;;2.15;1.17;;;;;;;23.64;39.56;98645.69;4952308;28;108270;-68
2024/04/06 09:02:38;;;;;;;5.90;1.45;;;;;;;24.41;38.70;98632.03;4950794;28;103550;-71
2024/04/06 09:05:05;;;;;;;4.85;1.33;;;;;;;24.39;38.22;98627.97;4962908;28;102799;-69
2024/04/06 09:07:31;;;;;;;6.47;1.50;;;;;;;24.79;36.20;98621.19;4967504;28;103136;-67
2024/04/06 09:09:58;;;;;;;4.68;1.00;;;;;;;24.57;36.74;98630.25;4959238;28;103397;-69
2024/04/06 09:12:25;;;;;;;5.53;1.50;;;;;;;24.48;36.83;98621.78;4941040;28;103825;-69
2024/04/06 09:14:51;;;;;;;5.93;1.40;;;;;;;24.79;37.05;98616.59;4934714;28;103292;-68
2024/04/06 09:17:21;;;;;;;5.35;1.40;;;;;;;24.98;36.18;98608.81;4961483;28;103121;-69
2024/04/06 09:19:56;;;;;;;4.38;1.35;;;;;;;24.59;35.59;98597.47;4964104;28;103279;-68
2024/04/06 09:22:22;;;;;;;;;;;;;;;24.85;38.01;98597.66;4984952;28;103159;-70
2024/04/06 09:24:48;;;;;;;3.83;1.42;;;;;;;24.70;37.08;98595.69;4944516;28;102891;-69
2024/04/06 09:27:18;;;;;;;3.13;1.30;;;;;;;24.71;37.20;98581.88;4963450;28;102721;-69
2024/04/06 09:29:47;;;;;;;4.45;1.33;;;;;;;24.81;37.20;98581.09;4974082;28;103523;-70
2024/04/06 09:32:18;;;;;;;4.15;1.40;;;;;;;24.93;36.95;98586.28;4953957;28;103538;-70
2024/04/06 09:34:52;;;;;;;6.63;1.65;;;;;;;25.38;35.98;98595.69;4955871;28;103186;-70
2024/04/06 09:37:50;;;;;;;6.10;1.17;;;;;;;25.47;35.76;98583.22;4952814;28;102820;-68
2024/04/06 09:40:16;;;;;;;4.47;1.58;;;;;;;25.74;35.85;98581.34;4945781;28;108431;-62
2024/04/06 09:42:43;;;;;;;7.57;1.80;;;;;;;25.37;35.80;98590.53;4971009;28;103349;-66
2024/04/06 09:45:09;;;;;;;5.07;2.08;;;;;;;25.56;35.19;98582.69;4971323;28;104311;-67
2024/04/06 09:47:37;;;;;;;6.47;2.80;;;;;;;25.74;33.79;98579.47;4974720;28;102851;-68
2024/04/06 09:50:04;;;;;;;5.25;1.88;;;;;;;26.07;34.27;98574.59;4972392;28;103489;-68
2024/04/06 09:52:30;;;;;;;8.73;1.98;;;;;;;26.09;33.44;98569.69;4969039;28;103847;-68
2024/04/06 09:54:56;;;;;;;3.17;1.50;;;;;;;25.95;32.38;98566.72;4974343;28;102772;-68
2024/04/06 09:57:22;;;;;;;3.60;1.50;;;;;;;26.37;32.19;98563.94;4980787;28;103118;-68
2024/04/06 09:59:59;;;;;;;4.47;1.40;;;;;;;26.48;31.71;98568.28;4964199;28;103974;-68
2024/04/06 10:02:32;;;;;;;3.65;1.42;;;;;;;26.74;31.52;98565.47;4972388;28;103241;-68
2024/04/06 10:05:05;;;;;;;2.63;1.10;;;;;;;26.55;31.64;98557.91;4971743;28;102869;-68
2024/04/06 10:07:36;;;;;;;4.32;1.20;;;;;;;26.15;33.04;98557.75;4970468;28;103223;-68
2024/04/06 10:10:04;;;;;;;5.35;1.70;;;;;;;26.22;31.64;98554.75;4972738;28;103370;-68
2024/04/06 10:12:46;;;;;;;3.83;1.55;;;;;;;26.26;31.66;98550.41;4971124;28;103767;-68
2024/04/06 10:15:21;;;;;;;3.15;1.10;;;;;;;26.35;31.45;98541.72;4975599;28;102761;-68
2024/04/06 10:17:54;;;;;;;7.43;1.20;;;;;;;26.31;31.42;98549.59;4960618;28;103967;-68
2024/04/06 10:20:25;;;;;;;3.03;1.05;;;;;;;26.58;31.20;98541.09;4966525;28;103746;-68
2024/04/06 10:22:57;;;;;;;4.15;1.20;;;;;;;26.97;29.92;98542.28;4971957;28;103349;-68
2024/04/06 10:25:30;;;;;;;3.72;1.15;;;;;;;27.10;30.71;98546.28;4978135;28;102889;-68
2024/04/06 10:28:07;;;;;;;4.03;1.20;;;;;;;27.16;28.70;98542.47;4968883;28;103443;-68
2024/04/06 10:30:36;;;;;;;2.70;1.17;;;;;;;26.61;25.79;98539.72;4952527;28;106164;-68
2024/04/06 10:33:03;;;;;;;2.55;0.82;;;;;;;27.28;25.63;98534.75;4947558;28;103898;-68
2024/04/06 10:35:30;;;;;;;2.78;1.00;;;;;;;27.37;25.83;98526.00;4943382;28;102792;-68
2024/04/06 10:38:07;;;;;;;1.65;1.00;;;;;;;27.23;24.34;98539.44;4959152;28;103285;-68
2024/04/06 10:40:37;;;;;;;2.47;0.90;;;;;;;26.94;24.45;98537.41;4930940;28;107673;-68
2024/04/06 10:43:03;;;;;;;2.67;1.02;;;;;;;26.95;23.38;98534.41;4965943;28;105585;-68
2024/04/06 10:45:39;;;;;;;19.23;6.05;;;;;;;26.90;22.83;98526.28;4939026;28;103329;-68
2024/04/06 10:48:10;;;;;;;31.00;6.60;;;;;;;27.19;22.69;98528.28;4940688;28;103011;-68
2024/04/06 10:50:38;;;;;;;3.85;1.08;;;;;;;27.21;22.21;98525.28;4945178;28;103526;-68
2024/04/06 10:53:08;;;;;;;4.75;1.40;;;;;;;27.52;22.63;98523.19;4970479;28;108036;-68
2024/04/06 10:55:34;;;;;;;10.48;5.05;;;;;;;27.45;21.93;98518.09;4966266;28;102974;-68
2024/04/06 10:58:00;;;;;;;21.15;11.63;;;;;;;27.49;22.52;98518.34;4970974;28;103021;-67
2024/04/06 11:00:30;;;;;;;3.05;1.15;;;;;;;27.49;23.10;98515.63;4969194;28;103520;-67
2024/04/06 11:03:02;;;;;;;3.28;1.10;;;;;;;27.43;21.89;98503.16;4957636;28;103177;-68
2024/04/06 11:05:28;;;;;;;1.95;0.80;;;;;;;27.75;22.28;98512.69;4967640;28;103234;-68
2024/04/06 11:07:54;;;;;;;2.38;0.93;;;;;;;27.66;22.41;98514.41;4950143;28;102874;-68
2024/04/06 11:10:21;;;;;;;7.93;3.72;;;;;;;27.98;22.59;98511.09;4964555;28;103341;-68
2024/04/06 11:12:47;;;;;;;3.42;1.55;;;;;;;28.25;21.63;98515.22;4967132;28;104379;-69
2024/04/06 11:15:13;;;;;;;3.17;1.30;;;;;;;28.35;21.87;98511.53;4985330;28;103085;-67
2024/04/06 11:17:40;;;;;;;7.25;1.48;;;;;;;28.32;21.27;98510.22;4950183;28;103383;-67
2024/04/06 11:20:07;;;;;;;3.08;1.10;;;;;;;27.99;21.10;98511.91;4945289;28;103362;-68
2024/04/06 11:22:38;;;;;;;2.55;1.08;;;;;;;27.88;21.31;98512.00;4965493;28;103497;-68
2024/04/06 11:25:04;;;;;;;2.88;0.90;;;;;;;27.95;20.78;98501.59;4960457;28;103265;-67